Time;durP1;ratioP1;P1;durP2;ratioP2;P2;SDS_P1;SDS_P2;PMS_P1;PMS_P2;Temp;Humidity;BMP_temperature;BMP_pressure;BME280_temperature;BME280_humidity;BME280_pressure;Samples;Min_cycle;Max_cycle;Signal;HPM_P1;HPM_P2
2022/12/18 00:00:28;;;;;;;70.40;33.47;;;-2.20;99.90;;;;;;5072693;28;20052;-62
2022/12/18 00:02:55;;;;;;;66.35;31.98;;;-2.20;99.90;;;;;;5056290;28;20055;-62
2022/12/18 00:05:20;;;;;;;69.22;31.92;;;-2.30;99.90;;;;;;5071731;28;20044;-62
2022/12/18 00:07:46;;;;;;;71.45;34.20;;;-2.30;99.90;;;;;;5072683;28;20106;-62
2022/12/18 00:10:11;;;;;;;66.43;34.50;;;-2.30;99.90;;;;;;5055890;28;20071;-62
2022/12/18 00:12:37;;;;;;;65.90;32.00;;;-2.30;99.90;;;;;;5055653;28;20465;-62
2022/12/18 00:15:03;;;;;;;68.82;33.25;;;-2.30;99.90;;;;;;5073701;28;20075;-62
2022/12/18 00:17:29;;;;;;;59.17;31.00;;;-2.30;99.90;;;;;;5039617;28;20401;-62
2022/12/18 00:19:54;;;;;;;66.28;31.85;;;-2.30;99.90;;;;;;5072974;28;20500;-62
2022/12/18 00:22:20;;;;;;;58.53;30.33;;;-2.30;99.90;;;;;;5073542;28;20045;-62
2022/12/18 00:24:46;;;;;;;67.03;32.63;;;-2.30;99.90;;;;;;5038822;28;20063;-62
2022/12/18 00:27:11;;;;;;;67.18;34.63;;;-2.30;99.90;;;;;;5071465;28;20052;-62
2022/12/18 00:29:37;;;;;;;62.40;31.08;;;-2.30;99.90;;;;;;5055667;28;20046;-62
2022/12/18 00:32:02;;;;;;;66.57;31.58;;;-2.30;99.90;;;;;;5073607;28;20138;-62
2022/12/18 00:34:28;;;;;;;62.67;29.88;;;-2.30;99.90;;;;;;5072598;28;20040;-62
2022/12/18 00:36:54;;;;;;;67.95;34.33;;;-2.30;99.90;;;;;;5055406;28;20049;-62
2022/12/18 00:39:19;;;;;;;66.43;30.55;;;-2.30;99.90;;;;;;5072213;28;20443;-61
2022/12/18 00:44:29;;;;;;;67.72;32.60;;;-2.30;99.90;;;;;;5055294;28;20053;-62
2022/12/18 00:46:54;;;;;;;65.40;31.67;;;-2.40;99.90;;;;;;5072309;28;20444;-62
2022/12/18 00:49:20;;;;;;;60.22;29.70;;;-2.40;99.90;;;;;;5071844;28;20040;-62
2022/12/18 00:51:46;;;;;;;65.72;32.25;;;-2.40;99.90;;;;;;5073095;28;20043;-62
2022/12/18 00:54:13;;;;;;;70.88;32.30;;;-2.40;99.90;;;;;;5037495;28;20041;-62
2022/12/18 00:56:39;;;;;;;65.95;32.53;;;-2.40;99.90;;;;;;5071847;28;20032;-62
2022/12/18 00:59:05;;;;;;;64.07;31.65;;;-2.40;99.90;;;;;;5055054;28;20106;-62
2022/12/18 01:01:32;;;;;;;64.18;31.00;;;-2.40;99.90;;;;;;5072311;28;20033;-62
2022/12/18 01:03:59;;;;;;;66.47;31.20;;;-2.40;99.90;;;;;;5054717;28;20049;-62
2022/12/18 01:06:24;;;;;;;69.03;33.65;;;-2.50;99.90;;;;;;5038045;28;20039;-62
2022/12/18 01:08:50;;;;;;;67.65;30.80;;;-2.50;99.90;;;;;;5071848;28;20036;-63
2022/12/18 01:11:18;;;;;;;73.93;32.65;;;-2.50;99.90;;;;;;5071146;28;20044;-62
2022/12/18 01:13:44;;;;;;;63.67;30.20;;;-2.50;99.90;;;;;;5054948;28;20067;-62
2022/12/18 01:16:14;;;;;;;78.30;33.97;;;-2.50;99.90;;;;;;5071687;28;20466;-62
2022/12/18 01:18:39;;;;;;;75.93;33.63;;;-2.50;99.90;;;;;;5038040;28;20040;-63
2022/12/18 01:21:10;;;;;;;62.67;29.15;;;-2.50;99.90;;;;;;5072091;28;20097;-63
2022/12/18 01:23:35;;;;;;;68.05;31.08;;;-2.60;99.90;;;;;;5053311;28;20485;-63
2022/12/18 01:26:10;;;;;;;72.95;32.05;;;-2.50;99.90;;;;;;5071275;28;20065;-62
2022/12/18 01:28:36;;;;;;;76.93;33.80;;;-2.60;99.90;;;;;;5054541;28;20037;-63
2022/12/18 01:31:19;;;;;;;64.10;31.77;;;-2.60;99.90;;;;;;5053225;28;20123;-62
2022/12/18 01:33:49;;;;;;;74.07;33.40;;;-2.60;99.90;;;;;;5071198;28;20334;-62
2022/12/18 01:36:17;;;;;;;68.82;30.85;;;-2.60;99.90;;;;;;5071342;28;20391;-62
2022/12/18 01:38:42;;;;;;;65.68;28.90;;;-2.60;99.90;;;;;;5072263;28;20658;-62
2022/12/18 01:41:08;;;;;;;68.22;34.22;;;-2.60;99.90;;;;;;5054499;28;20170;-63
2022/12/18 01:43:41;;;;;;;74.43;32.88;;;-2.60;99.90;;;;;;5037187;28;20441;-62
2022/12/18 01:46:06;;;;;;;71.00;32.00;;;-2.60;99.90;;;;;;5054243;28;20036;-62
2022/12/18 01:48:32;;;;;;;65.28;33.20;;;-2.70;99.90;;;;;;5070760;28;20510;-62
2022/12/18 01:50:58;;;;;;;64.75;30.45;;;-2.70;99.90;;;;;;5070056;28;20113;-62
2022/12/18 01:53:24;;;;;;;63.47;29.77;;;-2.70;99.90;;;;;;5070753;28;20094;-62
2022/12/18 01:55:52;;;;;;;65.13;31.98;;;-2.70;99.90;;;;;;5053985;28;20037;-62
2022/12/18 01:58:19;;;;;;;67.55;30.05;;;-2.70;99.90;;;;;;5036845;28;20432;-62
2022/12/18 02:00:46;;;;;;;67.95;32.85;;;-2.70;99.90;;;;;;5071593;28;20043;-62
2022/12/18 02:03:11;;;;;;;75.60;33.22;;;-2.70;99.90;;;;;;5071665;28;20032;-62
2022/12/18 02:05:48;;;;;;;66.35;32.15;;;-2.80;99.90;;;;;;5053404;28;20062;-62
2022/12/18 02:08:20;;;;;;;73.28;31.60;;;-2.70;99.90;;;;;;5071371;28;20076;-62
2022/12/18 02:11:04;;;;;;;67.78;28.75;;;-2.70;99.90;;;;;;5037228;28;20487;-62
2022/12/18 02:13:46;;;;;;;66.38;31.75;;;-2.80;99.90;;;;;;5071076;28;20076;-62
2022/12/18 02:16:21;;;;;;;62.55;27.30;;;-2.70;99.90;;;;;;5070515;28;20036;-63
2022/12/18 02:18:57;;;;;;;68.88;30.33;;;-2.80;99.90;;;;;;5070923;28;20048;-62
2022/12/18 02:21:44;;;;;;;63.38;27.92;;;-2.80;99.90;;;;;;5071409;28;20045;-62
2022/12/18 02:24:43;;;;;;;61.65;29.35;;;-2.80;99.90;;;;;;5053230;28;20143;-62
2022/12/18 02:27:10;;;;;;;54.15;27.70;;;-2.90;99.90;;;;;;5069345;28;20044;-62
2022/12/18 02:29:46;;;;;;;63.17;30.35;;;-2.90;99.90;;;;;;5071745;28;20036;-62
2022/12/18 02:32:20;;;;;;;60.92;27.65;;;-2.90;99.90;;;;;;5070075;28;20038;-63
2022/12/18 02:34:48;;;;;;;63.28;28.23;;;-2.90;99.90;;;;;;5054570;28;20493;-63
2022/12/18 02:37:18;;;;;;;57.42;27.80;;;-2.90;99.90;;;;;;5057472;28;20044;-62
2022/12/18 02:39:46;;;;;;;55.92;27.98;;;-2.90;99.90;;;;;;5074611;28;20079;-62
2022/12/18 02:42:12;;;;;;;65.15;28.50;;;-3.00;99.90;;;;;;5057173;28;20060;-63
2022/12/18 02:44:46;;;;;;;55.33;26.52;;;-3.00;99.90;;;;;;5057454;28;20052;-62
2022/12/18 02:47:14;;;;;;;61.38;27.70;;;-3.00;99.90;;;;;;5056412;28;20080;-62
2022/12/18 02:50:02;;;;;;;59.40;28.20;;;-3.00;99.90;;;;;;5040881;28;20052;-62
2022/12/18 02:52:30;;;;;;;55.67;27.60;;;-3.10;99.90;;;;;;5075238;28;20039;-62
2022/12/18 02:55:18;;;;;;;63.55;28.40;;;-3.10;99.90;;;;;;5056366;28;20043;-62
2022/12/18 02:58:11;;;;;;;62.10;27.77;;;-3.10;99.90;;;;;;5057016;28;20040;-62
2022/12/18 03:00:53;;;;;;;58.00;26.75;;;-3.10;99.90;;;;;;5056786;28;20039;-62
2022/12/18 03:03:28;;;;;;;55.88;27.55;;;-3.10;99.90;;;;;;5073569;28;20053;-62
2022/12/18 03:06:01;;;;;;;54.38;25.90;;;-3.10;99.90;;;;;;5074766;28;20048;-62
2022/12/18 03:08:31;;;;;;;49.60;26.17;;;-3.20;99.90;;;;;;5074180;28;20102;-62
2022/12/18 03:11:07;;;;;;;55.75;28.83;;;-3.20;99.90;;;;;;5073344;28;20119;-62
2022/12/18 03:13:48;;;;;;;52.65;25.05;;;-3.20;99.90;;;;;;5073492;28;20041;-62
2022/12/18 03:16:26;;;;;;;56.53;27.08;;;-3.20;99.90;;;;;;5073807;28;20083;-63
2022/12/18 03:18:57;;;;;;;54.60;26.98;;;-3.30;99.90;;;;;;5056979;28;20366;-62
2022/12/18 03:21:31;;;;;;;54.38;25.42;;;-3.30;99.90;;;;;;5074352;28;20048;-62
2022/12/18 03:23:58;;;;;;;51.75;26.92;;;-3.30;99.90;;;;;;5074369;28;20094;-62
2022/12/18 03:26:26;;;;;;;56.40;25.67;;;-3.30;99.90;;;;;;5074463;28;20416;-62
2022/12/18 03:29:02;;;;;;;59.38;26.13;;;-3.40;99.90;;;;;;5073636;28;20171;-62
2022/12/18 03:31:30;;;;;;;54.50;25.90;;;-3.40;99.90;;;;;;5074370;28;20433;-62
2022/12/18 03:34:01;;;;;;;53.08;25.13;;;-3.40;99.90;;;;;;5073298;28;20048;-62
2022/12/18 03:36:27;;;;;;;50.22;25.60;;;-3.40;99.90;;;;;;5073694;28;20135;-62
2022/12/18 03:38:53;;;;;;;55.47;26.55;;;-3.40;99.90;;;;;;5072953;28;20497;-62
2022/12/18 03:41:28;;;;;;;57.88;27.92;;;-3.50;99.90;;;;;;5072717;28;20043;-63
2022/12/18 03:44:03;;;;;;;;;;;-3.50;99.90;;;;;;5074147;28;20436;-62
2022/12/18 03:46:41;;;;;;;48.80;25.17;;;-3.50;99.90;;;;;;5073964;28;19985;-62
2022/12/18 03:49:39;;;;;;;52.75;24.98;;;-3.50;99.90;;;;;;5056172;28;20090;-62
2022/12/18 03:52:25;;;;;;;54.78;26.33;;;-3.50;99.90;;;;;;5055330;28;20409;-62
2022/12/18 03:54:53;;;;;;;50.33;25.08;;;-3.60;99.90;;;;;;5072799;28;20036;-62
2022/12/18 03:57:22;;;;;;;51.03;25.02;;;-3.60;99.90;;;;;;5072139;28;20429;-63
2022/12/18 04:00:00;;;;;;;65.03;31.02;;;-3.60;99.90;;;;;;5072557;28;20489;-62
2022/12/18 04:02:26;;;;;;;50.92;24.45;;;-3.60;99.90;;;;;;5072515;28;20048;-62
2022/12/18 04:04:55;;;;;;;50.45;24.77;;;-3.60;99.90;;;;;;5055146;28;20041;-62
2022/12/18 04:07:21;;;;;;;55.22;27.27;;;-3.60;99.90;;;;;;5073491;28;20529;-63
2022/12/18 04:09:49;;;;;;;55.45;27.42;;;-3.60;99.90;;;;;;5072371;28;20033;-63
2022/12/18 04:12:15;;;;;;;58.97;27.45;;;-3.70;99.90;;;;;;5072807;28;20076;-62
2022/12/18 04:14:41;;;;;;;50.92;24.15;;;-3.70;99.90;;;;;;5072757;28;20076;-63
2022/12/18 04:17:06;;;;;;;54.55;23.98;;;-3.70;99.90;;;;;;5073790;28;20374;-63
2022/12/18 04:19:32;;;;;;;56.75;26.20;;;-3.70;99.90;;;;;;5055118;28;20393;-63
2022/12/18 04:21:58;;;;;;;54.35;27.88;;;-3.70;99.90;;;;;;5073440;28;20139;-62
2022/12/18 04:24:24;;;;;;;57.30;27.17;;;-3.70;99.90;;;;;;5051803;28;20076;-63
2022/12/18 04:26:49;;;;;;;46.70;25.08;;;-3.70;99.90;;;;;;5051301;28;20044;-62
2022/12/18 04:29:15;;;;;;;52.38;24.88;;;-3.80;99.90;;;;;;5052123;28;20366;-63
2022/12/18 04:31:40;;;;;;;60.30;27.50;;;-3.80;99.90;;;;;;5053793;28;20036;-63
2022/12/18 04:34:06;;;;;;;56.03;26.23;;;-3.70;99.90;;;;;;5052475;28;20390;-62
2022/12/18 04:36:32;;;;;;;61.65;27.15;;;-3.80;99.90;;;;;;5053380;28;20044;-62
2022/12/18 04:38:57;;;;;;;60.63;27.25;;;-3.80;99.90;;;;;;5051228;28;20044;-62
2022/12/18 04:41:23;;;;;;;52.33;26.88;;;-3.80;99.90;;;;;;5051859;28;20563;-62
2022/12/18 04:43:49;;;;;;;53.55;27.55;;;-3.80;99.90;;;;;;5052825;28;20033;-62
2022/12/18 04:46:14;;;;;;;59.20;28.52;;;-3.80;99.90;;;;;;5050861;28;20044;-62
2022/12/18 04:48:40;;;;;;;54.17;26.10;;;-3.80;99.90;;;;;;5051796;28;20402;-62
2022/12/18 04:51:06;;;;;;;61.60;28.77;;;-3.80;99.90;;;;;;5052627;28;20052;-62
2022/12/18 04:53:32;;;;;;;58.65;28.25;;;-3.80;99.90;;;;;;5051169;28;20041;-62
2022/12/18 04:56:12;;;;;;;59.10;28.05;;;-3.80;99.90;;;;;;5051805;28;20056;-62
2022/12/18 04:58:40;;;;;;;60.00;26.98;;;-3.80;99.90;;;;;;5052147;28;20048;-62
2022/12/18 05:01:07;;;;;;;59.05;29.17;;;-3.80;99.90;;;;;;5050776;28;20045;-62
2022/12/18 05:03:33;;;;;;;53.60;25.67;;;-3.80;99.90;;;;;;5053018;28;20040;-62
2022/12/18 05:05:59;;;;;;;55.78;26.13;;;-3.80;99.90;;;;;;5051286;28;20049;-62
2022/12/18 05:08:25;;;;;;;58.25;27.05;;;-3.90;99.90;;;;;;5033902;28;20394;-62
2022/12/18 05:11:02;;;;;;;67.05;31.45;;;-3.90;99.90;;;;;;5067723;28;20048;-62
2022/12/18 05:13:28;;;;;;;51.00;25.90;;;-3.80;99.90;;;;;;5052681;28;20118;-63
2022/12/18 05:15:55;;;;;;;59.03;25.70;;;-3.80;99.90;;;;;;5050293;28;20040;-62
2022/12/18 05:18:21;;;;;;;60.08;24.80;;;-3.80;99.90;;;;;;5052357;28;20044;-62
2022/12/18 05:20:47;;;;;;;58.28;26.83;;;-3.80;99.90;;;;;;5052213;28;20494;-63
2022/12/18 05:23:12;;;;;;;57.00;26.38;;;-3.80;99.90;;;;;;5051513;28;20045;-62
2022/12/18 05:25:38;;;;;;;46.80;23.30;;;-3.90;99.90;;;;;;5069815;28;20053;-62
2022/12/18 05:28:04;;;;;;;54.15;25.52;;;-3.90;99.90;;;;;;5054158;28;20052;-62
2022/12/18 05:30:29;;;;;;;55.00;26.60;;;-3.90;99.90;;;;;;5071649;28;20120;-62
2022/12/18 05:32:55;;;;;;;44.17;23.15;;;-3.90;99.90;;;;;;5070788;28;20041;-62
2022/12/18 05:35:21;;;;;;;47.65;22.40;;;-4.00;99.90;;;;;;5069994;28;20040;-62
2022/12/18 05:37:46;;;;;;;51.95;23.20;;;-4.00;99.90;;;;;;5071220;28;20109;-62
2022/12/18 05:40:12;;;;;;;50.65;25.90;;;-4.00;99.90;;;;;;5071826;28;20127;-62
2022/12/18 05:42:38;;;;;;;45.45;24.05;;;-4.00;99.90;;;;;;5053805;28;20079;-62
2022/12/18 05:45:05;;;;;;;52.33;24.65;;;-4.00;99.90;;;;;;5053823;28;20101;-63
2022/12/18 05:47:31;;;;;;;48.30;24.92;;;-4.00;99.90;;;;;;5054068;28;20044;-62
2022/12/18 05:49:56;;;;;;;50.05;23.05;;;-4.00;99.90;;;;;;5071174;28;20033;-62
2022/12/18 05:52:22;;;;;;;40.00;22.38;;;-4.10;99.90;;;;;;5053806;28;20074;-62
2022/12/18 05:54:48;;;;;;;43.95;22.65;;;-4.00;99.90;;;;;;5070813;28;20542;-62
2022/12/18 05:57:13;;;;;;;50.83;22.05;;;-4.00;99.90;;;;;;5071132;28;20489;-62
2022/12/18 05:59:39;;;;;;;47.17;23.20;;;-4.00;99.90;;;;;;5070813;28;20595;-62
2022/12/18 06:02:05;;;;;;;42.53;21.63;;;-4.00;99.90;;;;;;5070193;28;20044;-62
2022/12/18 06:04:31;;;;;;;41.72;21.95;;;-4.00;99.90;;;;;;5070022;28;20338;-62
2022/12/18 06:06:57;;;;;;;41.97;20.88;;;-4.00;99.90;;;;;;5070095;28;20044;-62
2022/12/18 06:09:23;;;;;;;48.53;22.92;;;-4.00;99.90;;;;;;5053543;28;20048;-62
2022/12/18 06:11:50;;;;;;;43.67;22.33;;;-4.00;99.90;;;;;;5069569;28;20514;-62
2022/12/18 06:14:17;;;;;;;46.15;23.00;;;-4.10;99.90;;;;;;5053457;28;20037;-62
2022/12/18 06:16:42;;;;;;;42.65;21.45;;;-4.10;99.90;;;;;;5053773;28;20052;-62
2022/12/18 06:19:15;;;;;;;41.13;21.40;;;-4.10;99.90;;;;;;5052688;28;20378;-62
2022/12/18 06:21:41;;;;;;;40.92;23.00;;;-4.10;99.90;;;;;;5071573;28;20066;-62
2022/12/18 06:24:07;;;;;;;43.50;20.85;;;-4.10;99.90;;;;;;5071525;28;20057;-62
2022/12/18 06:26:33;;;;;;;44.65;22.63;;;-4.10;99.90;;;;;;5052993;28;20040;-62
2022/12/18 06:28:59;;;;;;;39.67;19.75;;;-4.10;99.90;;;;;;5053277;28;20547;-62
2022/12/18 06:31:25;;;;;;;43.65;20.27;;;-4.10;99.90;;;;;;5069605;28;20032;-63
2022/12/18 06:33:50;;;;;;;44.58;19.73;;;-4.10;99.90;;;;;;5069920;28;20041;-62
2022/12/18 06:36:16;;;;;;;36.92;18.90;;;-4.10;99.90;;;;;;5069725;28;20094;-62
2022/12/18 06:38:43;;;;;;;42.90;21.67;;;-4.20;99.90;;;;;;5070410;28;20048;-62
2022/12/18 06:41:13;;;;;;;36.55;19.50;;;-4.20;99.90;;;;;;5053468;28;20124;-62
2022/12/18 06:43:38;;;;;;;35.90;17.65;;;-4.20;99.90;;;;;;5036789;28;20040;-62
2022/12/18 06:46:13;;;;;;;38.47;18.13;;;-4.20;99.90;;;;;;5068864;28;20044;-62
2022/12/18 06:48:39;;;;;;;41.25;19.67;;;-4.20;99.90;;;;;;5036801;28;20037;-62
2022/12/18 06:51:05;;;;;;;39.42;20.35;;;-4.20;99.90;;;;;;5052830;28;20076;-62
2022/12/18 06:53:32;;;;;;;37.80;20.27;;;-4.20;99.90;;;;;;5052968;28;20079;-62
2022/12/18 06:56:03;;;;;;;37.58;19.67;;;-4.20;99.90;;;;;;5071142;28;20397;-62
2022/12/18 06:58:28;;;;;;;36.78;18.48;;;-4.20;99.90;;;;;;5071194;28;20063;-62
2022/12/18 07:00:59;;;;;;;45.72;19.55;;;-4.20;99.90;;;;;;5069056;28;20045;-62
2022/12/18 07:03:24;;;;;;;44.17;19.10;;;-4.30;99.90;;;;;;5070997;28;20091;-62
2022/12/18 07:05:50;;;;;;;35.88;18.33;;;-4.30;99.90;;;;;;5069592;28;20044;-62
2022/12/18 07:08:16;;;;;;;40.90;17.67;;;-4.30;99.90;;;;;;5068779;28;20112;-62
2022/12/18 07:10:43;;;;;;;38.40;18.80;;;-4.30;99.90;;;;;;5069713;28;20453;-62
2022/12/18 07:13:09;;;;;;;34.83;16.58;;;-4.30;99.90;;;;;;5053029;28;20037;-62
2022/12/18 07:15:35;;;;;;;35.15;19.35;;;-4.30;99.90;;;;;;5069266;28;20400;-62
2022/12/18 07:18:00;;;;;;;31.13;17.17;;;-4.40;99.90;;;;;;5069575;28;20048;-63
2022/12/18 07:20:26;;;;;;;33.15;17.85;;;-4.30;99.90;;;;;;5071252;28;20091;-62
2022/12/18 07:22:52;;;;;;;35.47;16.10;;;-4.30;99.90;;;;;;5060523;28;20053;-62
2022/12/18 07:25:17;;;;;;;34.92;19.38;;;-4.40;99.90;;;;;;5054310;28;20059;-62
2022/12/18 07:27:44;;;;;;;33.75;17.13;;;-4.30;99.90;;;;;;5072266;28;20052;-63
2022/12/18 07:30:10;;;;;;;35.63;18.35;;;-4.30;99.90;;;;;;5046708;28;20028;-62
2022/12/18 07:32:36;;;;;;;30.30;15.45;;;-4.40;99.90;;;;;;5057034;28;20040;-62
2022/12/18 07:35:02;;;;;;;32.35;16.88;;;-4.30;99.90;;;;;;5055451;28;20048;-62
2022/12/18 07:37:28;;;;;;;38.00;18.42;;;-4.40;99.90;;;;;;5074770;28;20040;-62
2022/12/18 07:39:53;;;;;;;39.42;16.83;;;-4.40;99.90;;;;;;5056026;28;20040;-62
2022/12/18 07:42:31;;;;;;;29.58;16.92;;;-4.40;99.90;;;;;;5035691;28;20094;-63
2022/12/18 07:44:57;;;;;;;33.13;15.82;;;-4.30;99.90;;;;;;5071160;28;20485;-62
2022/12/18 07:47:23;;;;;;;33.15;16.25;;;-4.30;99.90;;;;;;5071829;28;20041;-62
2022/12/18 07:49:49;;;;;;;31.95;16.52;;;-4.30;99.90;;;;;;5053431;28;20161;-62
2022/12/18 07:52:14;;;;;;;33.42;16.05;;;-4.30;99.90;;;;;;5053360;28;20122;-62
2022/12/18 07:54:40;;;;;;;35.70;19.48;;;-4.30;99.90;;;;;;5072108;28;20048;-62
2022/12/18 07:57:06;;;;;;;36.72;17.08;;;-4.30;99.90;;;;;;5070631;28;20562;-62
2022/12/18 07:59:32;;;;;;;32.67;15.63;;;-4.30;99.90;;;;;;5071186;28;20106;-62
2022/12/18 08:01:58;;;;;;;30.58;16.65;;;-4.30;99.90;;;;;;5053927;28;20040;-62
2022/12/18 08:04:24;;;;;;;33.13;17.52;;;-4.30;99.90;;;;;;5062812;28;20523;-62
2022/12/18 08:06:50;;;;;;;31.95;16.23;;;-4.30;99.90;;;;;;5059120;28;20036;-62
2022/12/18 08:09:15;;;;;;;31.48;16.70;;;-4.30;99.90;;;;;;5040901;28;20049;-62
2022/12/18 08:11:41;;;;;;;30.80;16.35;;;-4.20;99.90;;;;;;5050255;28;20501;-62
2022/12/18 08:14:07;;;;;;;31.55;16.13;;;-4.20;99.90;;;;;;5069357;28;20401;-62
2022/12/18 08:16:33;;;;;;;35.10;16.30;;;-4.20;99.90;;;;;;5068364;28;20405;-62
2022/12/18 08:18:58;;;;;;;32.67;16.10;;;-4.20;99.90;;;;;;5068604;28;20048;-62
2022/12/18 08:21:27;;;;;;;35.08;16.95;;;-4.10;99.90;;;;;;5069098;28;20123;-62
2022/12/18 08:23:55;;;;;;;32.00;15.52;;;-4.10;99.90;;;;;;5052288;28;20065;-62
2022/12/18 08:26:22;;;;;;;40.53;17.80;;;-4.10;99.90;;;;;;5068593;28;20083;-62
2022/12/18 08:28:48;;;;;;;29.67;15.73;;;-4.10;99.90;;;;;;5069817;28;20119;-62
2022/12/18 08:31:14;;;;;;;35.17;16.95;;;-4.00;99.90;;;;;;5068144;28;20083;-62
2022/12/18 08:33:41;;;;;;;32.65;15.88;;;-4.00;99.90;;;;;;5070254;28;20071;-62
2022/12/18 08:36:08;;;;;;;27.30;13.15;;;-3.90;99.90;;;;;;5070588;28;20143;-62
2022/12/18 08:38:34;;;;;;;26.25;14.75;;;-3.90;99.90;;;;;;5069655;28;20040;-62
2022/12/18 08:41:00;;;;;;;28.90;15.02;;;-3.90;99.90;;;;;;5068985;28;20036;-62
2022/12/18 08:46:11;;;;;;;28.90;15.23;;;-3.80;99.90;;;;;;5055125;28;20831;-62
2022/12/18 08:48:37;;;;;;;26.33;16.52;;;-3.70;99.90;;;;;;5057138;28;20572;-62
2022/12/18 08:51:02;;;;;;;26.48;15.15;;;-3.70;99.90;;;;;;5069699;28;20043;-62
2022/12/18 08:53:28;;;;;;;26.65;15.75;;;-3.60;99.90;;;;;;5068863;28;20040;-62
2022/12/18 08:55:55;;;;;;;30.75;16.67;;;-3.60;99.90;;;;;;5070138;28;20037;-62
2022/12/18 08:58:21;;;;;;;30.83;15.48;;;-3.50;99.90;;;;;;5052239;28;20045;-63
2022/12/18 09:00:47;;;;;;;31.23;14.98;;;-3.50;99.90;;;;;;5035048;28;20048;-62
2022/12/18 09:03:17;;;;;;;28.30;14.98;;;-3.40;99.90;;;;;;5047921;28;20503;-63
2022/12/18 09:05:45;;;;;;;25.65;14.75;;;-3.40;99.90;;;;;;5044699;28;20374;-62
2022/12/18 09:08:11;;;;;;;31.80;16.90;;;-3.30;99.90;;;;;;5051679;28;20047;-62
2022/12/18 09:10:44;;;;;;;31.02;16.27;;;-3.30;99.90;;;;;;5036079;28;20396;-62
2022/12/18 09:13:11;;;;;;;30.65;14.13;;;-3.20;99.90;;;;;;5052502;28;20041;-62
2022/12/18 09:15:45;;;;;;;27.02;14.68;;;-3.20;99.90;;;;;;5051807;28;20522;-62
2022/12/18 09:18:12;;;;;;;24.67;14.65;;;-3.10;99.90;;;;;;5051674;28;20056;-62
2022/12/18 09:20:39;;;;;;;31.27;15.93;;;-3.00;99.90;;;;;;5068259;28;20079;-61
2022/12/18 09:23:06;;;;;;;28.50;14.88;;;-2.90;99.90;;;;;;5057289;28;20044;-62
2022/12/18 09:25:35;;;;;;;25.35;14.10;;;-2.90;99.90;;;;;;5068100;28;20064;-62
2022/12/18 09:28:04;;;;;;;26.63;14.23;;;-2.80;99.90;;;;;;5053059;28;20246;-62
2022/12/18 09:30:33;;;;;;;24.85;13.13;;;-2.80;99.90;;;;;;5051899;28;20123;-63
2022/12/18 09:32:58;;;;;;;22.27;12.73;;;-2.70;99.90;;;;;;5035148;28;20040;-62
2022/12/18 09:35:24;;;;;;;25.58;13.13;;;-2.60;99.90;;;;;;5067471;28;20052;-62
2022/12/18 09:37:50;;;;;;;24.50;13.35;;;-2.60;99.90;;;;;;5052436;28;20409;-62
2022/12/18 09:40:25;;;;;;;25.05;13.32;;;-2.50;99.90;;;;;;5061355;28;20048;-62
2022/12/18 09:42:58;;;;;;;21.08;12.70;;;-2.40;99.90;;;;;;5043817;28;20131;-62
2022/12/18 09:45:24;;;;;;;23.20;12.85;;;-2.40;99.90;;;;;;5058330;28;20582;-62
2022/12/18 09:47:52;;;;;;;22.17;12.15;;;-2.40;99.90;;;;;;5068566;28;20087;-62
2022/12/18 09:50:29;;;;;;;23.20;13.25;;;-2.30;99.90;;;;;;5063327;28;20090;-62
2022/12/18 09:52:59;;;;;;;24.08;11.60;;;-2.30;99.90;;;;;;5050833;28;20043;-62
2022/12/18 09:55:56;;;;;;;21.40;10.98;;;-2.20;99.90;;;;;;5033598;28;20052;-62
2022/12/18 09:58:31;;;;;;;20.80;12.05;;;-2.20;99.90;;;;;;5037913;28;20083;-62
2022/12/18 10:00:57;;;;;;;25.50;12.90;;;-2.10;99.90;;;;;;5015167;28;20044;-62
2022/12/18 10:03:26;;;;;;;21.77;11.63;;;-2.10;99.90;;;;;;5047060;28;20492;-62
2022/12/18 10:06:18;;;;;;;21.13;11.10;;;-2.10;99.90;;;;;;5050239;28;20173;-62
2022/12/18 10:08:58;;;;;;;18.27;10.68;;;-2.00;99.90;;;;;;5084248;28;20036;-62
2022/12/18 10:11:24;;;;;;;20.63;10.02;;;-2.00;99.90;;;;;;5070473;28;20386;-62
2022/12/18 10:14:16;;;;;;;19.63;11.50;;;-1.90;99.90;;;;;;5050239;28;20052;-62
2022/12/18 10:17:20;;;;;;;19.05;11.98;;;-1.90;99.90;;;;;;5048625;28;20259;-62
2022/12/18 10:19:52;;;;;;;22.77;11.27;;;-1.80;99.90;;;;;;5051770;28;20056;-61
2022/12/18 10:22:36;;;;;;;20.52;12.93;;;-1.80;99.90;;;;;;5067801;28;20046;-62
2022/12/18 10:25:25;;;;;;;18.75;11.10;;;-1.70;99.90;;;;;;5049592;28;20056;-62
2022/12/18 10:27:57;;;;;;;18.55;10.55;;;-1.70;99.90;;;;;;5049862;28;20048;-62
2022/12/18 10:30:24;;;;;;;17.75;10.07;;;-1.70;99.90;;;;;;5049896;28;20036;-62
2022/12/18 10:32:51;;;;;;;19.60;10.98;;;-1.70;99.90;;;;;;5065521;28;20405;-62
2022/12/18 10:35:23;;;;;;;19.35;10.63;;;-1.70;99.90;;;;;;5058509;28;20052;-61
2022/12/18 10:38:13;;;;;;;19.92;10.90;;;-1.60;99.90;;;;;;5063241;28;20044;-63
2022/12/18 10:40:58;;;;;;;18.08;11.93;;;-1.60;99.90;;;;;;5067696;28;20090;-62
2022/12/18 10:43:37;;;;;;;18.83;9.70;;;-1.60;99.90;;;;;;5067861;28;20080;-61
2022/12/18 10:46:08;;;;;;;19.02;11.52;;;-1.60;99.90;;;;;;5067502;28;20048;-62
2022/12/18 10:49:00;;;;;;;19.42;10.88;;;-1.60;99.90;;;;;;5067721;28;20041;-62
2022/12/18 10:51:33;;;;;;;20.80;11.23;;;-1.60;99.90;;;;;;5062476;28;20057;-62
2022/12/18 10:54:24;;;;;;;20.75;11.70;;;-1.60;99.90;;;;;;5067170;28;20048;-62
2022/12/18 10:56:50;;;;;;;20.08;10.80;;;-1.60;99.90;;;;;;5069766;28;20044;-62
2022/12/18 10:59:17;;;;;;;17.15;10.38;;;-1.60;99.90;;;;;;5054980;28;20045;-62
2022/12/18 11:01:57;;;;;;;20.88;11.00;;;-1.60;99.90;;;;;;5070435;28;20048;-62
2022/12/18 11:04:31;;;;;;;17.58;10.07;;;-1.60;99.90;;;;;;5065164;28;20048;-62
2022/12/18 11:07:05;;;;;;;17.75;10.07;;;-1.60;99.90;;;;;;5070826;28;20048;-62
2022/12/18 11:09:39;;;;;;;15.50;8.90;;;-1.60;99.90;;;;;;5072268;28;20153;-62
2022/12/18 11:12:19;;;;;;;16.20;9.20;;;-1.60;99.90;;;;;;5053703;28;20048;-62
2022/12/18 11:14:53;;;;;;;17.60;9.95;;;-1.60;99.90;;;;;;5036013;28;20040;-62
2022/12/18 11:17:31;;;;;;;15.73;9.18;;;-1.50;99.90;;;;;;5053723;28;20396;-62
2022/12/18 11:19:59;;;;;;;15.95;9.13;;;-1.50;99.90;;;;;;5052912;28;20535;-62
2022/12/18 11:22:27;;;;;;;14.20;9.18;;;-1.50;99.90;;;;;;5055254;28;20163;-62
2022/12/18 11:25:04;;;;;;;17.67;9.35;;;-1.50;99.90;;;;;;5053000;28;20091;-62
2022/12/18 11:27:30;;;;;;;16.75;9.35;;;-1.40;99.90;;;;;;5068315;28;20048;-62
2022/12/18 11:30:30;;;;;;;20.58;11.57;;;-1.40;99.90;;;;;;5039593;28;20094;-62
2022/12/18 11:33:02;;;;;;;20.40;9.48;;;-1.30;99.90;;;;;;5018302;28;20068;-62
2022/12/18 11:35:57;;;;;;;20.73;10.13;;;-1.30;99.90;;;;;;5069910;28;20056;-62
2022/12/18 11:38:30;;;;;;;17.17;9.15;;;-1.30;99.90;;;;;;5070587;28;20098;-62
2022/12/18 11:41:00;;;;;;;14.55;8.48;;;-1.30;99.90;;;;;;5036494;28;20109;-62
2022/12/18 11:43:35;;;;;;;18.77;8.85;;;-1.30;99.90;;;;;;5069971;28;20048;-62
2022/12/18 11:46:14;;;;;;;17.70;8.77;;;-1.30;99.90;;;;;;5054145;28;20084;-62
2022/12/18 11:48:48;;;;;;;15.80;8.75;;;-1.20;99.90;;;;;;5053220;28;20040;-62
2022/12/18 11:51:24;;;;;;;15.27;7.78;;;-1.20;99.90;;;;;;5071717;28;20039;-62
2022/12/18 11:53:51;;;;;;;15.75;9.07;;;-1.20;99.90;;;;;;5071466;28;20040;-62
2022/12/18 11:56:39;;;;;;;15.32;8.48;;;-1.20;99.90;;;;;;5058202;28;20057;-62
2022/12/18 11:59:32;;;;;;;13.48;8.77;;;-1.20;99.90;;;;;;5056310;28;20770;-62
2022/12/18 12:02:23;;;;;;;18.73;8.73;;;-1.20;99.90;;;;;;5067796;28;20511;-62
2022/12/18 12:04:56;;;;;;;16.05;7.80;;;-1.10;99.90;;;;;;5061977;28;20047;-61
2022/12/18 12:07:51;;;;;;;14.10;7.47;;;-1.10;99.90;;;;;;5070555;28;20044;-62
2022/12/18 12:10:37;;;;;;;14.77;8.43;;;-1.20;99.90;;;;;;5010494;28;20084;-62
2022/12/18 12:13:44;;;;;;;16.13;7.82;;;-1.10;99.90;;;;;;5070934;28;20072;-62
2022/12/18 12:16:27;;;;;;;13.50;7.88;;;-1.20;99.90;;;;;;5051236;28;20153;-62
2022/12/18 12:18:59;;;;;;;13.82;8.10;;;-1.10;99.90;;;;;;5047490;28;20106;-62
2022/12/18 12:21:42;;;;;;;14.30;7.15;;;-1.10;99.90;;;;;;5052254;28;20048;-62
2022/12/18 12:24:22;;;;;;;15.30;8.38;;;-1.10;99.90;;;;;;5049393;28;20056;-62
2022/12/18 12:26:52;;;;;;;15.73;7.57;;;-1.10;99.90;;;;;;5071059;28;20521;-62
2022/12/18 12:29:35;;;;;;;14.35;8.98;;;-1.10;99.90;;;;;;5069465;28;20527;-62
2022/12/18 12:32:07;;;;;;;16.08;8.55;;;-1.00;99.90;;;;;;5070562;28;20090;-62
2022/12/18 12:34:45;;;;;;;12.02;7.40;;;-1.10;99.90;;;;;;5063016;28;20070;-61
2022/12/18 12:37:25;;;;;;;12.50;6.93;;;-1.00;99.90;;;;;;5068837;28;20444;-62
2022/12/18 12:39:52;;;;;;;12.85;6.82;;;-1.00;99.90;;;;;;5058389;28;20068;-62
2022/12/18 12:45:37;;;;;;;14.07;6.97;;;-0.90;99.90;;;;;;5052807;28;20080;-62
2022/12/18 12:48:10;;;;;;;11.98;6.35;;;-0.90;99.90;;;;;;5033001;28;20505;-62
2022/12/18 12:50:38;;;;;;;11.75;6.03;;;-0.80;99.90;;;;;;5048288;28;20123;-62
2022/12/18 12:53:08;;;;;;;11.00;6.40;;;-0.80;99.90;;;;;;5069118;28;20043;-62